createdAt,value
2023-03-29T00:00:22.667Z,14.30
2023-03-29T00:03:10.798Z,14.30
2023-03-29T00:05:57.652Z,14.30
2023-03-29T00:08:38.890Z,14.30
2023-03-29T00:11:25.654Z,14.20
2023-03-29T00:14:12.684Z,14.30
2023-03-29T00:16:59.700Z,14.20
2023-03-29T00:19:46.680Z,14.20
2023-03-29T00:22:33.634Z,14.20
2023-03-29T00:25:21.658Z,14.20
2023-03-29T00:28:02.223Z,14.20
2023-03-29T00:30:48.664Z,14.20
2023-03-29T00:33:35.732Z,14.20
2023-03-29T00:36:17.654Z,14.20
2023-03-29T00:39:04.718Z,14.30
2023-03-29T00:41:44.650Z,14.20
2023-03-29T00:45:02.664Z,14.20
2023-03-29T00:48:11.769Z,14.10
2023-03-29T00:51:10.166Z,14.20
2023-03-29T00:53:55.650Z,14.20
2023-03-29T00:56:46.672Z,14.10
2023-03-29T00:59:39.649Z,14.10
2023-03-29T01:02:26.008Z,14.10
2023-03-29T01:05:23.653Z,14.20
2023-03-29T01:08:11.122Z,14.20
2023-03-29T01:11:08.692Z,14.20
2023-03-29T01:13:55.203Z,14.10
2023-03-29T01:16:44.679Z,14.20
2023-03-29T01:19:39.066Z,14.10
2023-03-29T01:22:37.690Z,14.10
2023-03-29T01:25:32.657Z,14.10
2023-03-29T01:28:17.712Z,14.10
2023-03-29T01:31:14.699Z,14.10
2023-03-29T01:34:08.692Z,14.10
2023-03-29T01:37:06.692Z,14.10
2023-03-29T01:39:46.726Z,14.10
2023-03-29T01:42:40.667Z,14.00
2023-03-29T01:45:50.680Z,14.00
2023-03-29T01:48:45.674Z,13.90
2023-03-29T01:51:31.714Z,13.90
2023-03-29T01:54:24.679Z,13.80
2023-03-29T01:57:19.774Z,13.80
2023-03-29T02:00:10.033Z,13.80
2023-03-29T02:02:51.727Z,13.80
2023-03-29T02:05:33.618Z,13.80
2023-03-29T02:08:23.664Z,13.80
2023-03-29T02:11:11.918Z,13.80
2023-03-29T02:13:51.729Z,13.80
2023-03-29T02:16:37.150Z,13.80
2023-03-29T02:19:24.631Z,13.80
2023-03-29T02:22:17.381Z,13.80
2023-03-29T02:25:00.659Z,13.80
2023-03-29T02:27:48.663Z,13.80
2023-03-29T02:30:37.708Z,13.80
2023-03-29T02:33:46.724Z,13.80
2023-03-29T02:36:48.659Z,13.80
2023-03-29T02:39:33.667Z,13.90
2023-03-29T02:42:23.660Z,13.90
2023-03-29T02:45:05.854Z,13.90
2023-03-29T02:47:56.674Z,13.90
2023-03-29T02:50:49.710Z,13.90
2023-03-29T02:53:38.669Z,13.90
2023-03-29T02:56:33.652Z,13.90
2023-03-29T02:59:20.684Z,13.90
2023-03-29T03:02:00.995Z,13.90
2023-03-29T03:04:47.650Z,14.00
2023-03-29T03:07:28.720Z,14.00
2023-03-29T03:10:16.682Z,13.90
2023-03-29T03:12:56.699Z,14.00
2023-03-29T03:15:48.669Z,14.00
2023-03-29T03:18:28.706Z,14.00
2023-03-29T03:21:15.707Z,14.00
2023-03-29T03:23:56.955Z,14.00
2023-03-29T03:26:45.662Z,14.00
2023-03-29T03:29:32.662Z,14.00
2023-03-29T03:32:25.696Z,14.00
2023-03-29T03:35:41.710Z,14.10
2023-03-29T03:38:30.638Z,14.00
2023-03-29T03:41:12.838Z,14.00
2023-03-29T03:43:59.645Z,14.00
2023-03-29T03:46:47.688Z,14.00
2023-03-29T03:49:34.665Z,14.10
2023-03-29T03:52:23.140Z,14.10
2023-03-29T03:55:03.291Z,14.10
2023-03-29T03:58:15.648Z,14.10
2023-03-29T04:00:56.174Z,14.10
2023-03-29T04:03:52.705Z,14.10
2023-03-29T04:06:33.238Z,14.00
2023-03-29T04:09:38.666Z,14.10
2023-03-29T04:12:57.669Z,14.10
2023-03-29T04:15:41.170Z,14.10
2023-03-29T04:18:28.850Z,14.20
2023-03-29T04:21:08.717Z,14.10
2023-03-29T04:23:56.658Z,14.20
2023-03-29T04:26:45.064Z,14.20
2023-03-29T04:29:35.652Z,14.20
2023-03-29T04:32:24.853Z,14.20
2023-03-29T04:35:18.644Z,14.30
2023-03-29T04:37:58.773Z,14.30
2023-03-29T04:40:46.789Z,14.30
2023-03-29T04:43:46.605Z,14.40
2023-03-29T04:46:36.679Z,14.40
2023-03-29T04:49:24.662Z,14.40
2023-03-29T04:52:12.673Z,14.40
2023-03-29T04:54:52.732Z,14.40
2023-03-29T04:57:52.682Z,14.40
2023-03-29T05:00:44.683Z,14.40
2023-03-29T05:03:30.221Z,14.40
2023-03-29T05:06:25.656Z,14.40
2023-03-29T05:09:06.888Z,14.40
2023-03-29T05:11:58.665Z,14.40
2023-03-29T05:14:51.817Z,14.40
2023-03-29T05:17:40.704Z,14.40
2023-03-29T05:20:22.310Z,14.40
2023-03-29T05:23:09.685Z,14.40
2023-03-29T05:26:26.489Z,14.30
2023-03-29T05:29:12.690Z,14.30
2023-03-29T05:31:59.438Z,14.30
2023-03-29T05:34:46.651Z,14.30
2023-03-29T05:37:34.686Z,14.30
2023-03-29T05:40:14.724Z,14.30
2023-03-29T05:43:21.698Z,14.30
2023-03-29T05:46:02.865Z,14.30
2023-03-29T05:48:53.673Z,14.30
2023-03-29T05:51:48.718Z,14.30
2023-03-29T05:54:35.645Z,14.30
2023-03-29T05:57:23.736Z,14.30
2023-03-29T06:00:16.804Z,14.30
2023-03-29T06:03:19.940Z,14.30
2023-03-29T06:06:12.664Z,14.30
2023-03-29T06:08:59.655Z,14.30
2023-03-29T06:11:49.660Z,14.30
2023-03-29T06:14:52.751Z,14.30
2023-03-29T06:17:46.715Z,14.30
2023-03-29T06:20:33.672Z,14.30
2023-03-29T06:23:20.552Z,14.30
2023-03-29T06:26:09.700Z,14.30
2023-03-29T06:28:57.428Z,14.30
2023-03-29T06:31:37.726Z,14.30
2023-03-29T06:34:33.166Z,14.30
2023-03-29T06:37:35.689Z,14.30
2023-03-29T06:40:33.477Z,14.30
2023-03-29T06:43:20.674Z,14.30
2023-03-29T06:46:14.294Z,14.30
2023-03-29T06:49:08.674Z,14.30
2023-03-29T06:52:00.185Z,14.40
2023-03-29T06:54:47.720Z,14.40
2023-03-29T06:57:30.752Z,14.40
2023-03-29T07:00:24.659Z,14.40
2023-03-29T07:03:30.156Z,14.40
2023-03-29T07:06:18.661Z,14.40
2023-03-29T07:09:06.837Z,14.50
2023-03-29T07:12:25.666Z,14.50
2023-03-29T07:15:08.777Z,14.60
2023-03-29T07:18:18.654Z,14.70
2023-03-29T07:20:59.244Z,14.70
2023-03-29T07:23:45.699Z,14.80
2023-03-29T07:26:28.687Z,14.80
2023-03-29T07:29:15.681Z,14.90
2023-03-29T07:31:56.545Z,14.90
2023-03-29T07:35:06.696Z,14.80
2023-03-29T07:37:47.649Z,14.80
2023-03-29T07:40:34.757Z,14.80
2023-03-29T07:43:53.667Z,14.80
2023-03-29T07:46:33.712Z,14.80
2023-03-29T07:49:22.215Z,14.80
2023-03-29T07:52:02.089Z,14.80
2023-03-29T07:54:48.670Z,14.90
2023-03-29T07:57:46.653Z,14.90
2023-03-29T08:00:34.798Z,14.90
2023-03-29T08:03:37.949Z,14.90
2023-03-29T08:06:24.669Z,14.90
2023-03-29T08:09:11.663Z,14.90
2023-03-29T08:11:58.667Z,14.90
2023-03-29T08:14:49.665Z,15.00
2023-03-29T08:17:35.104Z,15.00
2023-03-29T08:20:24.683Z,15.10
2023-03-29T08:23:15.770Z,15.10
2023-03-29T08:26:27.689Z,15.10
2023-03-29T08:29:14.733Z,15.10
2023-03-29T08:31:55.712Z,15.10
2023-03-29T08:34:36.320Z,15.20
2023-03-29T08:37:32.666Z,15.20
2023-03-29T08:40:21.628Z,15.20
2023-03-29T08:43:54.683Z,15.30
2023-03-29T08:47:21.096Z,15.30
2023-03-29T08:50:10.681Z,15.40
2023-03-29T08:53:25.684Z,15.40
2023-03-29T08:56:34.227Z,15.50
2023-03-29T08:59:47.676Z,15.40
2023-03-29T09:02:39.835Z,15.50
2023-03-29T09:05:44.693Z,15.40
2023-03-29T09:08:31.415Z,15.40
2023-03-29T09:11:54.682Z,15.50
2023-03-29T09:15:10.684Z,15.50
2023-03-29T09:18:17.818Z,15.50
2023-03-29T09:21:11.703Z,15.50
2023-03-29T09:24:13.595Z,15.50
2023-03-29T09:28:02.665Z,15.60
2023-03-29T09:31:10.705Z,15.60
2023-03-29T09:34:01.720Z,15.60
2023-03-29T09:36:57.738Z,15.70
2023-03-29T09:39:45.666Z,15.80
2023-03-29T09:42:35.674Z,15.90
2023-03-29T09:45:23.808Z,16.10
2023-03-29T09:48:25.681Z,16.20
2023-03-29T09:51:15.674Z,16.30
2023-03-29T09:53:56.054Z,16.40
2023-03-29T09:57:09.771Z,16.50
2023-03-29T09:59:58.350Z,16.60
2023-03-29T10:02:46.698Z,16.70
2023-03-29T10:05:43.675Z,16.70
2023-03-29T10:08:55.673Z,16.80
2023-03-29T10:11:40.285Z,16.80
2023-03-29T10:14:31.675Z,16.90
2023-03-29T10:17:34.731Z,16.90
2023-03-29T10:20:22.290Z,17.00
2023-03-29T10:23:08.709Z,17.10
2023-03-29T10:25:55.687Z,17.10
2023-03-29T10:28:44.696Z,17.20
2023-03-29T10:31:35.759Z,17.20
2023-03-29T10:34:27.997Z,17.20
2023-03-29T10:37:08.710Z,17.20
2023-03-29T10:39:49.707Z,17.30
2023-03-29T10:42:44.691Z,17.30
2023-03-29T10:45:35.688Z,17.30
2023-03-29T10:48:19.739Z,17.30
2023-03-29T10:51:07.657Z,17.40
2023-03-29T10:53:47.759Z,17.40
2023-03-29T10:56:47.720Z,17.40
2023-03-29T10:59:55.939Z,17.40
2023-03-29T11:02:58.777Z,17.40
2023-03-29T11:06:09.654Z,17.50
2023-03-29T11:09:02.910Z,17.50
2023-03-29T11:11:54.195Z,17.50
2023-03-29T11:15:09.055Z,17.50
2023-03-29T11:18:25.664Z,17.50
2023-03-29T11:21:27.979Z,17.50
2023-03-29T11:24:34.692Z,17.50
2023-03-29T11:27:45.648Z,17.50
2023-03-29T11:30:42.096Z,17.50
2023-03-29T11:33:55.645Z,17.60
2023-03-29T11:36:59.732Z,17.60
2023-03-29T11:40:16.674Z,17.60
2023-03-29T11:43:06.742Z,17.60
2023-03-29T11:45:59.683Z,17.70
2023-03-29T11:49:27.672Z,17.70
2023-03-29T11:52:19.562Z,17.70
2023-03-29T11:55:34.676Z,17.70
2023-03-29T11:58:34.885Z,17.80
2023-03-29T12:01:24.673Z,17.80
2023-03-29T12:04:30.794Z,17.80
2023-03-29T12:07:30.706Z,17.90
2023-03-29T12:10:19.298Z,17.90
2023-03-29T12:13:12.645Z,17.90
2023-03-29T12:16:00.672Z,17.90
2023-03-29T12:18:51.668Z,17.90
2023-03-29T12:21:40.738Z,17.90
2023-03-29T12:24:25.676Z,17.90
2023-03-29T12:27:17.064Z,17.80
2023-03-29T12:30:14.684Z,17.80
2023-03-29T12:33:04.860Z,17.80
2023-03-29T12:36:31.701Z,17.80
2023-03-29T12:39:35.961Z,17.80
2023-03-29T12:43:05.677Z,17.70
2023-03-29T12:46:14.779Z,17.70
2023-03-29T12:49:05.817Z,17.70
2023-03-29T12:51:53.658Z,17.60
2023-03-29T12:54:46.690Z,17.70
2023-03-29T12:57:55.695Z,17.60
2023-03-29T13:00:42.505Z,17.60
2023-03-29T13:03:54.677Z,17.60
2023-03-29T13:07:05.750Z,17.60
2023-03-29T13:09:59.668Z,17.60
2023-03-29T13:12:55.668Z,17.60
2023-03-29T13:15:41.805Z,17.60
2023-03-29T13:18:56.682Z,17.70
2023-03-29T13:21:59.750Z,17.60
2023-03-29T13:25:08.668Z,17.70
2023-03-29T13:27:58.766Z,17.70
2023-03-29T13:31:07.735Z,17.70
2023-03-29T13:33:57.765Z,17.70
2023-03-29T13:36:54.674Z,17.70
2023-03-29T13:39:39.579Z,17.70
2023-03-29T13:42:40.705Z,17.70
2023-03-29T13:45:39.685Z,17.70
2023-03-29T13:48:34.748Z,17.80
2023-03-29T13:51:20.680Z,17.80
2023-03-29T13:54:38.672Z,17.80
2023-03-29T13:57:39.731Z,17.80
2023-03-29T14:00:35.848Z,17.80
2023-03-29T14:03:32.723Z,17.80
2023-03-29T14:06:24.708Z,17.80
2023-03-29T14:09:16.682Z,17.90
2023-03-29T14:12:00.150Z,17.90
2023-03-29T14:14:58.382Z,17.90
2023-03-29T14:17:39.694Z,18.00
2023-03-29T14:20:28.753Z,18.00
2023-03-29T14:23:10.759Z,18.00
2023-03-29T14:25:57.725Z,18.00
2023-03-29T14:28:45.941Z,18.00
2023-03-29T14:31:53.743Z,18.00
2023-03-29T14:34:34.125Z,18.00
2023-03-29T14:37:23.677Z,18.00
2023-03-29T14:40:16.733Z,18.10
2023-03-29T14:43:04.661Z,18.10
2023-03-29T14:45:46.378Z,18.10
2023-03-29T14:48:32.685Z,18.10
2023-03-29T14:51:20.379Z,18.10
2023-03-29T14:53:59.679Z,18.20
2023-03-29T14:56:46.720Z,18.20
2023-03-29T14:59:43.789Z,18.20
2023-03-29T15:02:38.781Z,18.20
2023-03-29T15:05:33.078Z,18.20
2023-03-29T15:08:21.676Z,18.20
2023-03-29T15:11:09.737Z,18.30
2023-03-29T15:13:50.688Z,18.20
2023-03-29T15:16:38.733Z,18.30
2023-03-29T15:19:38.707Z,18.30
2023-03-29T15:22:25.715Z,18.30
2023-03-29T15:25:05.719Z,18.30
2023-03-29T15:28:00.247Z,18.30
2023-03-29T15:31:06.781Z,18.20
2023-03-29T15:33:54.710Z,18.20
2023-03-29T15:36:34.764Z,18.20
2023-03-29T15:39:23.678Z,18.30
2023-03-29T15:42:11.789Z,18.20
2023-03-29T15:45:02.675Z,18.20
2023-03-29T15:47:49.705Z,18.20
2023-03-29T15:50:30.385Z,18.20
2023-03-29T15:53:16.697Z,18.20
2023-03-29T15:56:00.008Z,18.20
2023-03-29T15:58:48.702Z,18.20
2023-03-29T16:01:41.903Z,18.20
2023-03-29T16:04:26.774Z,18.10
2023-03-29T16:07:19.693Z,18.10
2023-03-29T16:09:59.803Z,18.10
2023-03-29T16:12:46.707Z,18.10
2023-03-29T16:15:28.745Z,18.10
2023-03-29T16:18:15.709Z,18.10
2023-03-29T16:21:03.724Z,18.10
2023-03-29T16:23:58.701Z,18.10
2023-03-29T16:26:45.952Z,18.10
2023-03-29T16:29:25.747Z,18.00
2023-03-29T16:32:13.783Z,18.10
2023-03-29T16:34:53.997Z,18.00
2023-03-29T16:37:40.678Z,18.00
2023-03-29T16:40:21.062Z,18.00
2023-03-29T16:43:07.850Z,18.00
2023-03-29T16:45:47.742Z,18.00
2023-03-29T16:48:34.694Z,18.00
2023-03-29T16:51:15.765Z,18.00
2023-03-29T16:54:03.744Z,18.00
2023-03-29T16:56:50.747Z,18.00
2023-03-29T16:59:37.691Z,17.90
2023-03-29T17:02:17.775Z,17.90
2023-03-29T17:05:04.713Z,17.90
2023-03-29T17:07:44.828Z,17.90
2023-03-29T17:10:31.713Z,17.90
2023-03-29T17:13:12.597Z,17.90
2023-03-29T17:16:02.247Z,17.90
2023-03-29T17:18:48.719Z,17.90
2023-03-29T17:21:35.710Z,17.80
2023-03-29T17:24:15.866Z,17.80
2023-03-29T17:27:02.742Z,17.90
2023-03-29T17:29:49.738Z,17.80
2023-03-29T17:32:37.831Z,17.80
2023-03-29T17:35:17.770Z,17.80
2023-03-29T17:38:05.680Z,17.80
2023-03-29T17:40:46.211Z,17.80
2023-03-29T17:43:32.710Z,17.80
2023-03-29T17:46:12.813Z,17.90
2023-03-29T17:48:59.726Z,17.90
2023-03-29T17:51:39.800Z,17.90
2023-03-29T17:54:26.727Z,18.00
2023-03-29T17:57:07.302Z,18.00
2023-03-29T17:59:53.747Z,18.00
2023-03-29T18:02:33.931Z,17.90
2023-03-29T18:05:20.753Z,18.00
2023-03-29T18:08:01.766Z,17.90
2023-03-29T18:10:49.720Z,17.90
2023-03-29T18:13:29.789Z,17.90
2023-03-29T18:16:17.727Z,17.90
2023-03-29T18:18:57.740Z,17.90
2023-03-29T18:21:44.726Z,17.90
2023-03-29T18:24:24.732Z,17.80
2023-03-29T18:27:12.749Z,17.90
2023-03-29T18:30:01.692Z,17.80
2023-03-29T18:32:48.822Z,17.90
2023-03-29T18:35:35.803Z,17.80
2023-03-29T18:38:21.523Z,17.80
2023-03-29T18:41:08.778Z,17.80
2023-03-29T18:43:55.722Z,17.80
2023-03-29T18:46:36.905Z,17.80
2023-03-29T18:49:23.703Z,17.80
2023-03-29T18:52:04.783Z,17.80
2023-03-29T18:54:51.701Z,17.80
2023-03-29T18:57:31.817Z,17.70
2023-03-29T19:00:18.703Z,17.70
2023-03-29T19:02:58.870Z,17.70
2023-03-29T19:05:46.704Z,17.70
2023-03-29T19:08:33.734Z,17.60
2023-03-29T19:11:22.722Z,17.60
2023-03-29T19:14:09.708Z,17.60
2023-03-29T19:16:50.795Z,17.50
2023-03-29T19:19:37.760Z,17.50
2023-03-29T19:22:24.700Z,17.50
2023-03-29T19:25:04.773Z,17.50
2023-03-29T19:27:52.748Z,17.50
2023-03-29T19:30:32.866Z,17.40
2023-03-29T19:33:20.750Z,17.40
2023-03-29T19:36:07.920Z,17.40
2023-03-29T19:38:54.704Z,17.40
2023-03-29T19:41:34.773Z,17.50
2023-03-29T19:44:21.737Z,17.40
2023-03-29T19:47:01.916Z,17.40
2023-03-29T19:49:48.710Z,17.40
2023-03-29T19:52:28.783Z,17.40
2023-03-29T19:55:16.698Z,17.40
2023-03-29T19:58:03.700Z,17.40
2023-03-29T20:00:57.713Z,17.40
2023-03-29T20:03:38.495Z,17.40
2023-03-29T20:06:25.727Z,17.40
2023-03-29T20:09:06.968Z,17.40
2023-03-29T20:11:53.729Z,17.40
2023-03-29T20:14:34.566Z,17.40
2023-03-29T20:17:20.733Z,17.40
2023-03-29T20:20:01.807Z,17.40
2023-03-29T20:22:51.742Z,17.40
2023-03-29T20:25:34.519Z,17.40
2023-03-29T20:28:20.758Z,17.40
2023-03-29T20:31:12.765Z,17.40
2023-03-29T20:33:59.721Z,17.30
2023-03-29T20:36:40.396Z,17.40
2023-03-29T20:39:28.744Z,17.40
2023-03-29T20:42:15.736Z,17.30
2023-03-29T20:45:02.766Z,17.30
2023-03-29T20:47:50.126Z,17.30
2023-03-29T20:50:37.750Z,17.30
2023-03-29T20:53:20.196Z,17.30
2023-03-29T20:56:06.777Z,17.30
2023-03-29T20:59:01.761Z,17.20
2023-03-29T21:01:48.802Z,17.20
2023-03-29T21:04:28.786Z,17.20
2023-03-29T21:07:15.719Z,17.20
2023-03-29T21:09:55.790Z,17.20
2023-03-29T21:12:43.727Z,17.20
2023-03-29T21:15:31.778Z,17.20
2023-03-29T21:18:18.724Z,17.20
2023-03-29T21:20:58.802Z,17.20
2023-03-29T21:23:46.734Z,17.20
2023-03-29T21:26:27.065Z,17.20
2023-03-29T21:29:13.753Z,17.20
2023-03-29T21:32:00.772Z,17.20
2023-03-29T21:34:47.742Z,17.20
2023-03-29T21:37:27.837Z,17.20
2023-03-29T21:40:16.783Z,17.20
2023-03-29T21:43:03.798Z,17.10
2023-03-29T21:45:50.721Z,17.20
2023-03-29T21:48:37.785Z,17.10
2023-03-29T21:51:17.880Z,17.10
2023-03-29T21:54:05.741Z,17.20
2023-03-29T21:56:55.804Z,17.10
2023-03-29T21:59:49.803Z,17.10
2023-03-29T22:02:36.881Z,17.10
2023-03-29T22:05:16.964Z,17.10
2023-03-29T22:08:04.771Z,17.10
2023-03-29T22:10:45.809Z,17.10
2023-03-29T22:13:34.761Z,17.10
2023-03-29T22:16:19.147Z,17.10
2023-03-29T22:19:05.777Z,17.10
2023-03-29T22:21:45.763Z,17.00
2023-03-29T22:24:25.888Z,17.10
2023-03-29T22:27:12.761Z,17.00
2023-03-29T22:29:52.845Z,17.00
2023-03-29T22:32:39.773Z,17.00
2023-03-29T22:35:26.745Z,17.00
2023-03-29T22:38:07.213Z,17.00
2023-03-29T22:40:53.736Z,16.90
2023-03-29T22:43:33.951Z,16.90
2023-03-29T22:46:22.864Z,16.90
2023-03-29T22:49:04.035Z,16.80
2023-03-29T22:51:50.761Z,16.80
2023-03-29T22:54:31.120Z,16.80
2023-03-29T22:57:17.773Z,16.80
2023-03-29T23:00:04.829Z,16.80
2023-03-29T23:02:44.801Z,16.80
2023-03-29T23:05:31.762Z,16.80
2023-03-29T23:08:11.798Z,16.80
2023-03-29T23:10:58.776Z,16.80
2023-03-29T23:13:45.746Z,16.70
2023-03-29T23:16:32.818Z,16.70
2023-03-29T23:19:12.896Z,16.70
2023-03-29T23:21:59.739Z,16.70
2023-03-29T23:24:40.196Z,16.70
2023-03-29T23:27:26.741Z,16.70
2023-03-29T23:30:13.774Z,16.70
2023-03-29T23:32:54.303Z,16.70
2023-03-29T23:35:40.776Z,16.70
2023-03-29T23:38:27.878Z,16.70
2023-03-29T23:41:10.758Z,16.70
2023-03-29T23:43:58.763Z,16.70
2023-03-29T23:46:39.167Z,16.70
2023-03-29T23:49:29.745Z,16.70
2023-03-29T23:52:10.334Z,16.70
2023-03-29T23:54:57.748Z,16.70
2023-03-29T23:57:37.804Z,16.70
